Aviation Digital Data Service (ADDS)

Output produced by METARs form (0503 UTC 27 July 2017)
found at http://www.aviationweather.gov/adds/metars/
 
KSTC 270453Z AUTO 33003KT 10SM CLR 18/18 A3005 RMK AO2 SLP180 T01830178
KBRD 270453Z AUTO 00000KT 10SM CLR 16/16 A3007 RMK AO2 SLP180 T01610156